Time;durP1;ratioP1;P1;durP2;ratioP2;P2;SDS_P1;SDS_P2;PMS_P1;PMS_P2;Temp;Humidity;BMP_temperature;BMP_pressure;BME280_temperature;BME280_humidity;BME280_pressure;Samples;Min_cycle;Max_cycle;Signal;HPM_P1;HPM_P2
2022/08/08 00:02:41;;;;;;;0.93;0.60;;;;;;;;;;5041894;27;87618;-52
2022/08/08 00:05:13;;;;;;;0.80;0.70;;;;;;;;;;5042570;27;86908;-52
2022/08/08 00:07:47;;;;;;;1.83;1.00;;;;;;;;;;5042075;27;86217;-52
2022/08/08 00:10:16;;;;;;;1.30;0.70;;;;;;;;;;5039592;27;88278;-52
2022/08/08 00:12:56;;;;;;;0.80;0.80;;;;;;;;;;5039299;28;87777;-52
2022/08/08 00:15:28;;;;;;;3.10;0.70;;;;;;;;;;5041586;28;87796;-52
2022/08/08 00:18:18;;;;;;;1.43;1.30;;;;;;;;;;5041906;27;87080;-52
2022/08/08 00:20:50;;;;;;;1.80;0.90;;;;;;;;;;5039789;27;88966;-52
2022/08/08 00:23:21;;;;;;;2.60;1.23;;;;;;;;;;5040163;27;87790;-52
2022/08/08 00:25:57;;;;;;;1.20;1.10;;;;;;;;;;5040057;27;87156;-52
2022/08/08 00:28:26;;;;;;;1.10;0.83;;;;;;;;;;5041557;27;87060;-52
2022/08/08 00:31:04;;;;;;;0.97;0.80;;;;;;;;;;5041300;27;88038;-52
2022/08/08 00:35:09;;;;;;;1.20;0.90;;;;;;;;;;5042147;27;87513;-53
2022/08/08 00:36:49;;;;;;;0.80;0.80;;;;;;;;;;5021783;28;87088;-52
2022/08/08 00:39:23;;;;;;;0.70;0.70;;;;;;;;;;5021805;28;87017;-52
2022/08/08 00:42:19;;;;;;;0.37;0.37;;;;;;;;;;5021086;28;91853;-52
2022/08/08 00:45:15;;;;;;;1.00;0.77;;;;;;;;;;5027843;28;89407;-52
2022/08/08 00:48:15;;;;;;;1.13;0.70;;;;;;;;;;5021845;28;86968;-52
2022/08/08 00:51:30;;;;;;;2.20;0.70;;;;;;;;;;5021725;28;86919;-52
2022/08/08 00:54:17;;;;;;;1.90;0.47;;;;;;;;;;4979541;28;89145;-52
2022/08/08 00:56:59;;;;;;;0.57;0.57;;;;;;;;;;4992428;28;88897;-52
2022/08/08 00:59:57;;;;;;;0.83;0.60;;;;;;;;;;5014228;28;87084;-54
2022/08/08 01:02:56;;;;;;;3.60;1.37;;;;;;;;;;5021895;28;86352;-53
2022/08/08 01:06:00;;;;;;;1.27;0.60;;;;;;;;;;5021384;28;90347;-53
2022/08/08 01:08:37;;;;;;;0.40;0.40;;;;;;;;;;5021600;28;88722;-53
2022/08/08 01:11:35;;;;;;;1.03;0.70;;;;;;;;;;5021564;28;87963;-53
2022/08/08 01:14:25;;;;;;;0.83;0.83;;;;;;;;;;4996891;28;87008;-53
2022/08/08 01:17:32;;;;;;;2.57;0.73;;;;;;;;;;5009562;28;87745;-53
2022/08/08 01:20:39;;;;;;;1.03;0.70;;;;;;;;;;5021407;28;87820;-52
2022/08/08 01:23:29;;;;;;;0.80;0.80;;;;;;;;;;5021300;28;86852;-52
2022/08/08 01:26:23;;;;;;;0.60;0.60;;;;;;;;;;5021318;28;87003;-52
2022/08/08 01:29:02;;;;;;;2.13;0.87;;;;;;;;;;5021229;28;88631;-52
2022/08/08 01:31:47;;;;;;;3.97;0.70;;;;;;;;;;5020645;28;87935;-52
2022/08/08 01:34:53;;;;;;;1.60;0.73;;;;;;;;;;5020790;28;87023;-52
2022/08/08 01:37:29;;;;;;;2.10;0.70;;;;;;;;;;5014124;28;87024;-53
2022/08/08 01:40:21;;;;;;;1.50;0.70;;;;;;;;;;5020335;28;88832;-51
2022/08/08 01:42:54;;;;;;;2.13;0.57;;;;;;;;;;5021898;28;88821;-51
2022/08/08 01:45:28;;;;;;;1.10;0.77;;;;;;;;;;5020873;28;87599;-51
2022/08/08 01:48:00;;;;;;;0.80;0.80;;;;;;;;;;5020475;28;87675;-52
2022/08/08 01:50:53;;;;;;;2.60;1.57;;;;;;;;;;5020724;28;87023;-52
2022/08/08 01:53:29;;;;;;;0.80;0.80;;;;;;;;;;5038211;28;88832;-52
2022/08/08 01:56:20;;;;;;;1.07;0.90;;;;;;;;;;5042953;27;87017;-52
2022/08/08 01:59:03;;;;;;;0.73;0.63;;;;;;;;;;5045095;27;86288;-52
2022/08/08 02:01:39;;;;;;;1.33;0.70;;;;;;;;;;5041566;27;88076;-52
2022/08/08 02:04:29;;;;;;;0.97;0.63;;;;;;;;;;5044099;27;86932;-52
2022/08/08 02:06:59;;;;;;;4.20;1.17;;;;;;;;;;5043988;28;88000;-53
2022/08/08 02:09:32;;;;;;;0.53;0.53;;;;;;;;;;5044340;27;87190;-53
2022/08/08 02:12:23;;;;;;;2.37;1.10;;;;;;;;;;5042662;27;87605;-53
2022/08/08 02:14:53;;;;;;;2.47;1.10;;;;;;;;;;5043816;27;87934;-52
2022/08/08 02:17:27;;;;;;;3.93;1.50;;;;;;;;;;5044188;27;86954;-52
2022/08/08 02:20:12;;;;;;;2.43;1.60;;;;;;;;;;5044362;27;86975;-52
2022/08/08 02:23:03;;;;;;;2.40;1.40;;;;;;;;;;5042143;27;90908;-55
2022/08/08 02:25:38;;;;;;;1.83;1.43;;;;;;;;;;5024387;28;88894;-54
2022/08/08 02:28:17;;;;;;;2.10;1.73;;;;;;;;;;5043473;28;87152;-54
2022/08/08 02:30:47;;;;;;;4.87;2.27;;;;;;;;;;5039017;27;87011;-51
2022/08/08 02:33:31;;;;;;;7.10;2.77;;;;;;;;;;5023287;28;88982;-53
2022/08/08 02:36:26;;;;;;;5.67;3.30;;;;;;;;;;5022524;28;88242;-53
2022/08/08 02:39:00;;;;;;;8.03;3.83;;;;;;;;;;5023790;28;87056;-52
2022/08/08 02:42:05;;;;;;;5.37;3.43;;;;;;;;;;5023626;28;86929;-52
2022/08/08 02:44:52;;;;;;;6.63;2.77;;;;;;;;;;5028933;28;89226;-54
2022/08/08 02:47:59;;;;;;;4.70;2.90;;;;;;;;;;5042156;28;89145;-54
2022/08/08 02:50:37;;;;;;;4.70;2.67;;;;;;;;;;5042918;28;87014;-53
2022/08/08 02:53:11;;;;;;;4.90;2.80;;;;;;;;;;5043869;27;86423;-53
2022/08/08 02:56:02;;;;;;;5.73;3.50;;;;;;;;;;5043210;27;89048;-53
2022/08/08 02:58:50;;;;;;;8.23;3.03;;;;;;;;;;5038127;27;89063;-54
2022/08/08 03:01:44;;;;;;;4.03;2.70;;;;;;;;;;5043394;27;88075;-54
2022/08/08 03:04:26;;;;;;;5.20;2.87;;;;;;;;;;5041549;27;87117;-53
2022/08/08 03:07:35;;;;;;;4.17;2.63;;;;;;;;;;5041567;27;89837;-54
2022/08/08 03:10:22;;;;;;;5.50;2.30;;;;;;;;;;5027362;27;89072;-53
2022/08/08 03:13:23;;;;;;;4.23;2.40;;;;;;;;;;5031860;27;86852;-53
2022/08/08 03:16:26;;;;;;;6.60;2.20;;;;;;;;;;5022781;28;87057;-52
2022/08/08 03:19:15;;;;;;;4.10;3.00;;;;;;;;;;5023326;28;89184;-52
2022/08/08 03:21:47;;;;;;;2.67;1.97;;;;;;;;;;5023616;28;89047;-52
2022/08/08 03:24:28;;;;;;;2.10;1.90;;;;;;;;;;5029213;28;86986;-52
2022/08/08 03:26:56;;;;;;;2.23;1.63;;;;;;;;;;5043312;27;86790;-52
2022/08/08 03:29:28;;;;;;;2.67;1.47;;;;;;;;;;5042050;27;90027;-53
2022/08/08 03:35:08;;;;;;;1.40;1.27;;;;;;;;;;5023275;28;87002;-52
2022/08/08 03:37:37;;;;;;;3.57;1.83;;;;;;;;;;5022726;28;86979;-53
2022/08/08 03:40:26;;;;;;;1.50;1.23;;;;;;;;;;5022348;28;87704;-52
2022/08/08 03:42:59;;;;;;;1.37;1.27;;;;;;;;;;5038653;28;88099;-52
2022/08/08 03:45:47;;;;;;;2.03;1.30;;;;;;;;;;5043276;27;87033;-52
2022/08/08 03:48:35;;;;;;;1.53;1.40;;;;;;;;;;5042878;27;87635;-52
2022/08/08 03:51:24;;;;;;;3.03;1.53;;;;;;;;;;5022894;28;89660;-52
2022/08/08 03:54:08;;;;;;;4.17;1.50;;;;;;;;;;5022353;28;87735;-52
2022/08/08 03:56:37;;;;;;;2.30;1.67;;;;;;;;;;5021913;28;87994;-52
2022/08/08 03:59:06;;;;;;;1.73;1.13;;;;;;;;;;5026022;28;86983;-52
2022/08/08 04:01:50;;;;;;;2.30;1.30;;;;;;;;;;5041589;27;88092;-52
2022/08/08 04:04:38;;;;;;;3.10;1.50;;;;;;;;;;5042187;27;90034;-52
2022/08/08 04:07:08;;;;;;;1.67;1.53;;;;;;;;;;5042888;27;87022;-53
2022/08/08 04:09:43;;;;;;;1.47;1.10;;;;;;;;;;5032732;27;87044;-52
2022/08/08 04:12:31;;;;;;;1.60;1.10;;;;;;;;;;5022231;28;89130;-52
2022/08/08 04:15:00;;;;;;;1.40;1.00;;;;;;;;;;5022564;28;88792;-52
2022/08/08 04:17:30;;;;;;;1.87;1.10;;;;;;;;;;5022892;28;87172;-52
2022/08/08 04:20:18;;;;;;;1.00;0.90;;;;;;;;;;5035425;28;87049;-52
2022/08/08 04:22:55;;;;;;;1.07;0.87;;;;;;;;;;5041942;27;89256;-52
2022/08/08 04:25:24;;;;;;;1.70;0.87;;;;;;;;;;5040573;27;88634;-53
2022/08/08 04:27:58;;;;;;;1.10;0.80;;;;;;;;;;5042063;27;87083;-51
2022/08/08 04:30:47;;;;;;;4.10;1.17;;;;;;;;;;5041229;27;86706;-52
2022/08/08 04:33:16;;;;;;;2.13;1.00;;;;;;;;;;5021312;28;88107;-53
2022/08/08 04:35:44;;;;;;;1.90;0.90;;;;;;;;;;5025501;28;87821;-52
2022/08/08 04:38:18;;;;;;;1.40;1.00;;;;;;;;;;5042022;27;87122;-52
2022/08/08 04:40:49;;;;;;;0.87;0.87;;;;;;;;;;5042459;27;86339;-52
2022/08/08 04:43:23;;;;;;;1.23;0.70;;;;;;;;;;5042357;27;88290;-53
2022/08/08 04:46:11;;;;;;;1.20;0.90;;;;;;;;;;5035271;27;87068;-52
2022/08/08 04:48:42;;;;;;;1.20;0.93;;;;;;;;;;5021405;28;87964;-52
2022/08/08 04:51:10;;;;;;;0.77;0.73;;;;;;;;;;5026000;28;87034;-52
2022/08/08 04:53:44;;;;;;;1.40;0.93;;;;;;;;;;5042061;27;87754;-52
2022/08/08 04:56:32;;;;;;;1.93;1.10;;;;;;;;;;5031838;27;87297;-52
2022/08/08 04:59:02;;;;;;;1.20;1.07;;;;;;;;;;5021459;28;87104;-51
2022/08/08 05:01:30;;;;;;;1.47;1.00;;;;;;;;;;5020891;28;86973;-52
2022/08/08 05:04:15;;;;;;;0.60;0.60;;;;;;;;;;5021585;28;89223;-52
2022/08/08 05:06:46;;;;;;;1.03;0.93;;;;;;;;;;5023010;28;89472;-52
2022/08/08 05:09:17;;;;;;;0.97;0.80;;;;;;;;;;5021659;28;87132;-52
2022/08/08 05:11:47;;;;;;;2.37;0.83;;;;;;;;;;5021398;28;87084;-52
2022/08/08 05:14:25;;;;;;;0.70;0.70;;;;;;;;;;5020635;28;88918;-52
2022/08/08 05:16:56;;;;;;;2.97;1.10;;;;;;;;;;5037459;28;88686;-52
2022/08/08 05:19:28;;;;;;;0.70;0.70;;;;;;;;;;5037999;27;86939;-52
2022/08/08 05:22:17;;;;;;;1.17;0.80;;;;;;;;;;5021907;28;86964;-53
2022/08/08 05:24:45;;;;;;;1.70;1.03;;;;;;;;;;5021174;28;86974;-53
2022/08/08 05:27:16;;;;;;;0.53;0.53;;;;;;;;;;5040044;28;88629;-53
2022/08/08 05:29:45;;;;;;;2.63;1.20;;;;;;;;;;5041429;27;86989;-53
2022/08/08 05:32:19;;;;;;;0.60;0.53;;;;;;;;;;5044648;27;86427;-51
2022/08/08 05:34:54;;;;;;;0.80;0.70;;;;;;;;;;5031079;27;88057;-51
2022/08/08 05:37:23;;;;;;;1.10;0.80;;;;;;;;;;5024312;28;87927;-51
2022/08/08 05:47:09;;;;;;;1.33;0.90;;;;;;;;;;5022829;28;87012;-53
2022/08/08 05:49:41;;;;;;;2.03;1.10;;;;;;;;;;5024312;28;87746;-53
2022/08/08 05:52:23;;;;;;;1.60;0.67;;;;;;;;;;5024584;28;86994;-53
2022/08/08 05:55:03;;;;;;;4.90;1.07;;;;;;;;;;5024463;28;86915;-53
2022/08/08 05:57:37;;;;;;;0.80;0.77;;;;;;;;;;5024443;28;89279;-53
2022/08/08 06:00:26;;;;;;;0.70;0.70;;;;;;;;;;5024187;28;87723;-52
2022/08/08 06:03:13;;;;;;;1.27;0.70;;;;;;;;;;5024565;28;86971;-53
2022/08/08 06:05:53;;;;;;;0.40;0.40;;;;;;;;;;5024410;28;86948;-51
2022/08/08 06:08:27;;;;;;;1.27;0.80;;;;;;;;;;5023043;28;89004;-52
2022/08/08 06:11:02;;;;;;;1.40;0.50;;;;;;;;;;5023592;28;88696;-52
2022/08/08 06:13:31;;;;;;;3.03;0.80;;;;;;;;;;5023559;28;87066;-53
2022/08/08 06:16:15;;;;;;;0.50;0.50;;;;;;;;;;5024095;28;87042;-55
2022/08/08 06:18:47;;;;;;;7.53;0.77;;;;;;;;;;5023366;28;88264;-53
2022/08/08 06:21:17;;;;;;;1.40;0.90;;;;;;;;;;5023727;28;87833;-53
2022/08/08 06:24:06;;;;;;;2.53;0.80;;;;;;;;;;5023766;28;86877;-52
2022/08/08 06:26:51;;;;;;;1.03;0.60;;;;;;;;;;5024121;28;86286;-53
2022/08/08 06:29:20;;;;;;;0.70;0.70;;;;;;;;;;5022185;28;89393;-53
2022/08/08 06:32:09;;;;;;;1.00;0.60;;;;;;;;;;5023700;28;90127;-52
2022/08/08 06:34:46;;;;;;;1.53;0.90;;;;;;;;;;5023289;28;87962;-53
2022/08/08 06:37:34;;;;;;;0.80;0.67;;;;;;;;;;5023030;28;88018;-53
2022/08/08 06:40:05;;;;;;;3.00;0.80;;;;;;;;;;5023507;28;89212;-53
2022/08/08 06:42:37;;;;;;;3.03;0.83;;;;;;;;;;5002719;28;89051;-53
2022/08/08 06:45:06;;;;;;;1.23;0.97;;;;;;;;;;5002900;28;86880;-53
2022/08/08 06:47:35;;;;;;;1.60;0.80;;;;;;;;;;5002240;28;87073;-52
2022/08/08 06:50:25;;;;;;;4.63;2.37;;;;;;;;;;5020423;28;87917;-53
2022/08/08 06:53:01;;;;;;;3.77;1.33;;;;;;;;;;5020855;28;90008;-52
2022/08/08 06:55:41;;;;;;;1.17;1.07;;;;;;;;;;5023330;28;87011;-53
2022/08/08 06:58:10;;;;;;;1.60;1.30;;;;;;;;;;5022993;28;87023;-52
2022/08/08 07:00:39;;;;;;;3.00;1.47;;;;;;;;;;5022801;28;90112;-54
2022/08/08 07:03:09;;;;;;;2.20;1.70;;;;;;;;;;5023237;28;88677;-53
2022/08/08 07:05:59;;;;;;;2.43;1.40;;;;;;;;;;5023532;28;87021;-53
2022/08/08 07:08:30;;;;;;;3.17;1.70;;;;;;;;;;5022765;28;87009;-53
2022/08/08 07:10:59;;;;;;;4.77;1.27;;;;;;;;;;5023120;28;89200;-53
2022/08/08 07:13:30;;;;;;;1.77;1.40;;;;;;;;;;5022502;28;87799;-53
2022/08/08 07:16:00;;;;;;;1.47;1.30;;;;;;;;;;5023417;28;87032;-53
2022/08/08 07:18:35;;;;;;;1.43;1.30;;;;;;;;;;5022618;28;88081;-53
2022/08/08 07:21:09;;;;;;;2.37;1.47;;;;;;;;;;5022449;28;88121;-53
2022/08/08 07:23:50;;;;;;;1.53;1.20;;;;;;;;;;5023368;28;87696;-53
2022/08/08 07:26:32;;;;;;;2.77;0.93;;;;;;;;;;5022772;28;87962;-53
2022/08/08 07:29:03;;;;;;;1.47;1.00;;;;;;;;;;5022344;28;87072;-53
2022/08/08 07:31:38;;;;;;;3.77;1.50;;;;;;;;;;5020770;28;88055;-53
2022/08/08 07:34:07;;;;;;;1.77;1.10;;;;;;;;;;5022551;28;87976;-53
2022/08/08 07:36:37;;;;;;;2.97;1.47;;;;;;;;;;5022840;28;87103;-54
2022/08/08 07:39:15;;;;;;;1.53;1.23;;;;;;;;;;5023059;28;87004;-53
2022/08/08 07:41:44;;;;;;;4.30;1.60;;;;;;;;;;5022778;28;88249;-53
2022/08/08 07:44:32;;;;;;;1.83;1.40;;;;;;;;;;5022563;28;87967;-53
2022/08/08 07:47:08;;;;;;;2.13;1.10;;;;;;;;;;5022143;28;87025;-53
2022/08/08 07:49:36;;;;;;;1.20;0.97;;;;;;;;;;5022962;28;87052;-53
2022/08/08 07:52:09;;;;;;;2.27;1.27;;;;;;;;;;5021608;28;89049;-53
2022/08/08 07:54:52;;;;;;;1.57;1.17;;;;;;;;;;5021428;28;88667;-53
2022/08/08 07:57:22;;;;;;;1.23;0.70;;;;;;;;;;5021814;28;87646;-52
2022/08/08 07:59:54;;;;;;;2.93;1.57;;;;;;;;;;5022240;28;87057;-53
2022/08/08 08:02:23;;;;;;;1.93;1.10;;;;;;;;;;5021103;28;89137;-53
2022/08/08 08:05:01;;;;;;;3.73;1.00;;;;;;;;;;5021942;28;88849;-53
2022/08/08 08:07:33;;;;;;;1.77;0.80;;;;;;;;;;5022525;28;87026;-53
2022/08/08 08:10:06;;;;;;;2.10;1.20;;;;;;;;;;5022305;28;86331;-53
2022/08/08 08:12:39;;;;;;;2.00;1.10;;;;;;;;;;5002102;28;89206;-53
2022/08/08 08:15:10;;;;;;;1.70;0.90;;;;;;;;;;5002064;28;88936;-53
2022/08/08 08:17:44;;;;;;;1.33;0.80;;;;;;;;;;5020751;28;88001;-53
2022/08/08 08:20:16;;;;;;;0.80;0.80;;;;;;;;;;5022040;28;87157;-53
2022/08/08 08:22:46;;;;;;;0.87;0.80;;;;;;;;;;5021857;28;88268;-52
2022/08/08 08:25:14;;;;;;;1.33;1.00;;;;;;;;;;5021858;28;88960;-53
2022/08/08 08:27:46;;;;;;;1.23;0.60;;;;;;;;;;5021455;28;88742;-52
2022/08/08 08:30:17;;;;;;;0.63;0.50;;;;;;;;;;5021580;28;87046;-52
2022/08/08 08:32:47;;;;;;;0.83;0.70;;;;;;;;;;5021888;28;88198;-52
2022/08/08 08:35:19;;;;;;;0.67;0.67;;;;;;;;;;5022186;28;87775;-53
2022/08/08 08:37:58;;;;;;;3.40;1.20;;;;;;;;;;5022187;28;87068;-54
2022/08/08 08:40:45;;;;;;;1.03;0.90;;;;;;;;;;5021585;28;87027;-53
2022/08/08 08:43:18;;;;;;;1.07;0.70;;;;;;;;;;5019681;28;88515;-53
2022/08/08 08:45:47;;;;;;;2.57;1.50;;;;;;;;;;5021254;28;89801;-55
2022/08/08 08:48:16;;;;;;;2.47;1.40;;;;;;;;;;5021486;28;87374;-54
2022/08/08 08:50:47;;;;;;;4.67;1.30;;;;;;;;;;5021541;28;86987;-53
2022/08/08 08:53:20;;;;;;;1.40;1.10;;;;;;;;;;5020798;28;88385;-53
2022/08/08 08:56:08;;;;;;;1.73;1.27;;;;;;;;;;5021005;28;87693;-55
2022/08/08 08:58:40;;;;;;;0.93;0.90;;;;;;;;;;5020529;28;87054;-53
2022/08/08 09:01:10;;;;;;;3.70;0.90;;;;;;;;;;5020968;28;86339;-53
2022/08/08 09:03:42;;;;;;;1.43;0.90;;;;;;;;;;5021500;28;89098;-54
2022/08/08 09:06:18;;;;;;;2.00;1.10;;;;;;;;;;5020024;28;87868;-54
2022/08/08 09:09:02;;;;;;;1.30;0.97;;;;;;;;;;5020743;28;88027;-53
2022/08/08 09:11:34;;;;;;;2.20;0.90;;;;;;;;;;5021411;28;86937;-53
2022/08/08 09:14:23;;;;;;;2.90;0.83;;;;;;;;;;5020842;28;88134;-53
2022/08/08 09:16:53;;;;;;;1.77;1.00;;;;;;;;;;5020071;28;88601;-53
2022/08/08 09:19:22;;;;;;;1.87;1.07;;;;;;;;;;5021448;28;86916;-53
2022/08/08 09:22:11;;;;;;;1.13;1.00;;;;;;;;;;5021677;28;87172;-53
2022/08/08 09:24:40;;;;;;;0.87;0.80;;;;;;;;;;5021006;28;88259;-53
2022/08/08 09:27:11;;;;;;;0.67;0.67;;;;;;;;;;5021550;28;88616;-55
2022/08/08 09:29:51;;;;;;;2.77;1.23;;;;;;;;;;5021427;28;87084;-50
2022/08/08 09:32:28;;;;;;;0.67;0.67;;;;;;;;;;5021299;28;87080;-49
2022/08/08 09:35:00;;;;;;;0.90;0.60;;;;;;;;;;5019710;28;89117;-51
2022/08/08 09:37:40;;;;;;;0.50;0.50;;;;;;;;;;5020643;28;89088;-51
2022/08/08 09:40:30;;;;;;;1.90;0.80;;;;;;;;;;5021536;28;86973;-50
2022/08/08 09:43:20;;;;;;;2.20;1.13;;;;;;;;;;5000857;28;87040;-50
2022/08/08 09:46:08;;;;;;;0.70;0.63;;;;;;;;;;5001232;28;87690;-53
2022/08/08 09:48:44;;;;;;;0.50;0.50;;;;;;;;;;5012817;28;87911;-53
2022/08/08 09:51:17;;;;;;;1.53;0.73;;;;;;;;;;5020916;28;87178;-53
2022/08/08 09:53:50;;;;;;;0.40;0.40;;;;;;;;;;5020933;28;86259;-53
2022/08/08 09:56:38;;;;;;;1.37;0.70;;;;;;;;;;5019911;28;88023;-53
2022/08/08 09:59:12;;;;;;;0.50;0.50;;;;;;;;;;5020761;28;87729;-54
2022/08/08 10:02:01;;;;;;;1.23;0.70;;;;;;;;;;5020780;28;88002;-53
2022/08/08 10:04:42;;;;;;;1.93;0.80;;;;;;;;;;5021100;28;86904;-52
2022/08/08 10:07:15;;;;;;;2.07;0.90;;;;;;;;;;5019552;28;87104;-52
2022/08/08 10:09:44;;;;;;;1.33;0.80;;;;;;;;;;5020296;28;87036;-52
2022/08/08 10:12:33;;;;;;;2.77;0.93;;;;;;;;;;5019794;28;87028;-53
2022/08/08 10:15:20;;;;;;;1.07;1.00;;;;;;;;;;5015564;28;87044;-54
2022/08/08 10:17:52;;;;;;;1.23;0.93;;;;;;;;;;5022137;28;88058;-54
2022/08/08 10:20:40;;;;;;;3.67;0.97;;;;;;;;;;5017772;28;87755;-53
2022/08/08 10:23:27;;;;;;;1.20;0.90;;;;;;;;;;5024385;28;87011;-53
2022/08/08 10:26:16;;;;;;;0.90;0.87;;;;;;;;;;5017647;28;86944;-53
2022/08/08 10:29:02;;;;;;;1.47;0.90;;;;;;;;;;5023357;28;90102;-54
2022/08/08 10:34:18;;;;;;;0.90;0.90;;;;;;;;;;5003995;28;87029;-53
2022/08/08 10:36:48;;;;;;;0.70;0.70;;;;;;;;;;5003649;28;87021;-53
2022/08/08 10:39:19;;;;;;;1.17;1.07;;;;;;;;;;5015036;28;86848;-53
2022/08/08 10:41:59;;;;;;;4.67;0.70;;;;;;;;;;5023358;28;87574;-53
2022/08/08 10:44:45;;;;;;;0.80;0.80;;;;;;;;;;5023205;28;87039;-53
2022/08/08 10:47:17;;;;;;;2.00;0.97;;;;;;;;;;5024049;28;86265;-52
2022/08/08 10:49:50;;;;;;;1.17;0.83;;;;;;;;;;5022398;28;88023;-52
2022/08/08 10:52:30;;;;;;;0.83;0.80;;;;;;;;;;5023092;28;88809;-54
2022/08/08 10:54:59;;;;;;;1.90;0.50;;;;;;;;;;5022537;28;88055;-53
2022/08/08 10:57:40;;;;;;;1.40;0.90;;;;;;;;;;5023490;28;87091;-52
2022/08/08 11:00:22;;;;;;;0.90;0.80;;;;;;;;;;5023189;28;88084;-54
2022/08/08 11:02:53;;;;;;;2.13;1.10;;;;;;;;;;5023210;28;87640;-52
2022/08/08 11:05:21;;;;;;;1.53;1.07;;;;;;;;;;5023653;28;86953;-53
2022/08/08 11:07:51;;;;;;;1.27;0.90;;;;;;;;;;5023456;28;86960;-54
2022/08/08 11:10:41;;;;;;;1.17;0.70;;;;;;;;;;5023050;28;90379;-52
2022/08/08 11:13:09;;;;;;;3.77;0.90;;;;;;;;;;5023596;28;87855;-53
2022/08/08 11:15:59;;;;;;;1.17;0.90;;;;;;;;;;5023077;28;87039;-53
2022/08/08 11:18:38;;;;;;;2.30;1.03;;;;;;;;;;5013477;28;86983;-52
2022/08/08 11:21:07;;;;;;;3.50;0.70;;;;;;;;;;5017251;28;90055;-54
2022/08/08 11:23:46;;;;;;;2.53;1.03;;;;;;;;;;5023019;28;89774;-52
2022/08/08 11:26:30;;;;;;;1.57;1.10;;;;;;;;;;5023097;28;87006;-53
2022/08/08 11:28:58;;;;;;;2.33;1.07;;;;;;;;;;5016988;28;87039;-52
2022/08/08 11:31:28;;;;;;;1.37;1.10;;;;;;;;;;5022608;28;88228;-52
2022/08/08 11:34:10;;;;;;;1.20;0.90;;;;;;;;;;5019354;28;88818;-53
2022/08/08 11:36:59;;;;;;;2.20;1.20;;;;;;;;;;5013016;28;86984;-54
2022/08/08 11:39:41;;;;;;;1.13;1.00;;;;;;;;;;5012961;28;86330;-52
2022/08/08 11:42:24;;;;;;;0.60;0.60;;;;;;;;;;5012365;28;88654;-52
2022/08/08 11:44:59;;;;;;;1.10;0.90;;;;;;;;;;5015900;28;89018;-54
2022/08/08 11:47:29;;;;;;;0.80;0.80;;;;;;;;;;5015463;28;88173;-54
2022/08/08 11:50:18;;;;;;;1.27;1.00;;;;;;;;;;5003776;28;87048;-53
2022/08/08 11:52:52;;;;;;;0.70;0.70;;;;;;;;;;5004976;28;89322;-54
2022/08/08 11:55:25;;;;;;;1.07;0.97;;;;;;;;;;5007362;28;87464;-53
2022/08/08 11:58:01;;;;;;;1.10;1.00;;;;;;;;;;5011684;28;87134;-52
2022/08/08 12:00:44;;;;;;;1.87;1.23;;;;;;;;;;5020634;28;87231;-54
2022/08/08 12:03:17;;;;;;;1.20;1.10;;;;;;;;;;5022152;28;89225;-52
2022/08/08 12:05:48;;;;;;;1.93;1.33;;;;;;;;;;5011938;28;87865;-53
2022/08/08 12:08:17;;;;;;;2.20;1.37;;;;;;;;;;5013473;28;87091;-53
2022/08/08 12:10:49;;;;;;;2.37;1.67;;;;;;;;;;5011696;28;87118;-53
2022/08/08 12:13:22;;;;;;;1.40;1.30;;;;;;;;;;5009427;28;89104;-54
2022/08/08 12:16:11;;;;;;;1.60;1.30;;;;;;;;;;5014829;28;88329;-52
2022/08/08 12:18:47;;;;;;;1.73;1.37;;;;;;;;;;5011224;28;87889;-53
2022/08/08 12:21:22;;;;;;;1.67;1.40;;;;;;;;;;5009940;28;87112;-52
2022/08/08 12:24:12;;;;;;;4.00;1.90;;;;;;;;;;5013780;28;87730;-53
2022/08/08 12:26:41;;;;;;;3.57;1.77;;;;;;;;;;5011025;28;88893;-53
2022/08/08 12:29:26;;;;;;;3.67;1.77;;;;;;;;;;5009161;28;87521;-53
2022/08/08 12:32:10;;;;;;;1.53;1.43;;;;;;;;;;5011759;28;86396;-53
2022/08/08 12:34:50;;;;;;;2.23;1.60;;;;;;;;;;5011870;28;89136;-53
2022/08/08 12:37:25;;;;;;;2.90;1.57;;;;;;;;;;5010756;28;87848;-53
2022/08/08 12:40:12;;;;;;;1.63;1.30;;;;;;;;;;5010520;28;87970;-52
2022/08/08 12:42:50;;;;;;;2.17;1.30;;;;;;;;;;5016961;28;87069;-53
2022/08/08 12:45:19;;;;;;;1.73;1.40;;;;;;;;;;5010260;28;90199;-55
2022/08/08 12:48:08;;;;;;;1.37;1.17;;;;;;;;;;5010424;28;87394;-53
2022/08/08 12:50:58;;;;;;;2.63;1.33;;;;;;;;;;5010800;28;87006;-53
2022/08/08 12:53:30;;;;;;;2.27;1.43;;;;;;;;;;5011050;28;87115;-53
2022/08/08 12:56:07;;;;;;;2.03;1.30;;;;;;;;;;5010548;28;88087;-53
2022/08/08 12:58:47;;;;;;;1.17;0.97;;;;;;;;;;5011403;28;87867;-53
2022/08/08 13:01:16;;;;;;;2.17;1.53;;;;;;;;;;5010886;28;87093;-53
2022/08/08 13:03:51;;;;;;;1.37;1.00;;;;;;;;;;5013946;28;87167;-53
2022/08/08 13:06:22;;;;;;;1.60;1.23;;;;;;;;;;5014910;28;88643;-54
2022/08/08 13:08:55;;;;;;;1.20;0.80;;;;;;;;;;5008099;28;87399;-53
2022/08/08 13:11:24;;;;;;;1.03;0.93;;;;;;;;;;5010637;28;87108;-53
2022/08/08 13:14:14;;;;;;;1.50;0.83;;;;;;;;;;5017019;28;87124;-53
2022/08/08 13:16:42;;;;;;;1.20;1.03;;;;;;;;;;5010677;28;89154;-54
2022/08/08 13:19:16;;;;;;;1.10;1.00;;;;;;;;;;5012587;28;87695;-53
2022/08/08 13:21:49;;;;;;;1.87;1.33;;;;;;;;;;5011014;28;87153;-53
2022/08/08 13:24:31;;;;;;;1.03;0.87;;;;;;;;;;5012018;28;86400;-53
2022/08/08 13:27:12;;;;;;;1.50;1.00;;;;;;;;;;5014539;28;89130;-53
2022/08/08 13:29:49;;;;;;;1.03;0.93;;;;;;;;;;5009947;28;87790;-54
2022/08/08 13:32:17;;;;;;;1.87;1.20;;;;;;;;;;5010351;28;87875;-54
2022/08/08 13:34:51;;;;;;;2.63;1.17;;;;;;;;;;5014000;28;87254;-54
2022/08/08 13:37:22;;;;;;;0.90;0.70;;;;;;;;;;5014886;28;88058;-54
2022/08/08 13:40:11;;;;;;;0.80;0.80;;;;;;;;;;5009983;28;87536;-54
2022/08/08 13:42:45;;;;;;;0.60;0.60;;;;;;;;;;5014792;28;89358;-53
2022/08/08 13:45:14;;;;;;;1.23;0.90;;;;;;;;;;5013859;28;87088;-54
2022/08/08 13:47:56;;;;;;;1.63;0.93;;;;;;;;;;5013252;28;88043;-54
2022/08/08 13:50:25;;;;;;;1.83;1.10;;;;;;;;;;5013570;28;88792;-53
2022/08/08 13:53:11;;;;;;;1.27;0.77;;;;;;;;;;5011263;28;86855;-54
2022/08/08 13:55:59;;;;;;;1.13;1.00;;;;;;;;;;5013764;28;87637;-53
2022/08/08 13:58:31;;;;;;;1.50;0.80;;;;;;;;;;5010757;28;88665;-52
2022/08/08 14:01:10;;;;;;;1.03;0.87;;;;;;;;;;5013497;28;88889;-53
2022/08/08 14:03:39;;;;;;;1.70;1.00;;;;;;;;;;5013759;28;87333;-52
2022/08/08 14:06:21;;;;;;;0.67;0.60;;;;;;;;;;5013618;28;87899;-53
2022/08/08 14:09:04;;;;;;;1.13;0.63;;;;;;;;;;5013847;28;87858;-54
2022/08/08 14:11:52;;;;;;;0.60;0.60;;;;;;;;;;5017091;28;87565;-54
2022/08/08 14:14:21;;;;;;;1.93;0.87;;;;;;;;;;5014140;28;87084;-52
2022/08/08 14:16:54;;;;;;;6.33;0.80;;;;;;;;;;5009564;28;86333;-53
2022/08/08 14:19:31;;;;;;;1.17;1.00;;;;;;;;;;5011824;28;88041;-53
2022/08/08 14:22:22;;;;;;;1.20;0.70;;;;;;;;;;5017416;28;87411;-54
2022/08/08 14:24:53;;;;;;;3.70;0.73;;;;;;;;;;5023260;28;87977;-54
2022/08/08 14:27:25;;;;;;;0.87;0.83;;;;;;;;;;5023210;28;86958;-52
2022/08/08 14:29:57;;;;;;;2.37;0.80;;;;;;;;;;5023259;28;87847;-53
2022/08/08 14:32:25;;;;;;;1.30;0.70;;;;;;;;;;5023404;28;87766;-53
2022/08/08 14:34:58;;;;;;;0.93;0.70;;;;;;;;;;5013064;28;87207;-52
2022/08/08 14:37:31;;;;;;;0.63;0.63;;;;;;;;;;5009111;28;87107;-52
2022/08/08 14:40:21;;;;;;;0.97;0.80;;;;;;;;;;5021834;28;87620;-52
2022/08/08 14:42:51;;;;;;;0.60;0.60;;;;;;;;;;5021617;28;87565;-53
2022/08/08 14:45:24;;;;;;;1.27;0.60;;;;;;;;;;5022184;28;87165;-53
2022/08/08 14:48:01;;;;;;;1.33;0.67;;;;;;;;;;5022434;28;87064;-52
2022/08/08 14:50:31;;;;;;;0.83;0.70;;;;;;;;;;5021658;28;88944;-53
2022/08/08 14:53:10;;;;;;;0.67;0.60;;;;;;;;;;5021112;28;89811;-52
2022/08/08 14:55:43;;;;;;;1.73;0.60;;;;;;;;;;5022684;28;86921;-52
2022/08/08 14:58:13;;;;;;;1.17;0.60;;;;;;;;;;5022463;28;86919;-53
2022/08/08 15:00:47;;;;;;;0.80;0.73;;;;;;;;;;5023171;28;89175;-53
2022/08/08 15:03:16;;;;;;;0.50;0.50;;;;;;;;;;5021786;28;87791;-53
2022/08/08 15:05:46;;;;;;;1.07;0.93;;;;;;;;;;5012893;28;87142;-52
2022/08/08 15:08:28;;;;;;;1.43;0.90;;;;;;;;;;5022841;28;86431;-54
2022/08/08 15:11:09;;;;;;;1.33;0.83;;;;;;;;;;5022972;28;87896;-53
2022/08/08 15:13:40;;;;;;;1.30;1.00;;;;;;;;;;5022864;28;89092;-52
2022/08/08 15:16:31;;;;;;;2.10;1.07;;;;;;;;;;5023231;28;87985;-52
2022/08/08 15:19:04;;;;;;;1.30;1.03;;;;;;;;;;5022981;28;87058;-53
2022/08/08 15:21:34;;;;;;;1.03;0.90;;;;;;;;;;5022121;28;88098;-51
2022/08/08 15:24:10;;;;;;;1.30;0.97;;;;;;;;;;5021353;28;87072;-53
2022/08/08 15:26:43;;;;;;;2.00;1.20;;;;;;;;;;5023046;28;87150;-52
2022/08/08 15:29:20;;;;;;;2.53;1.13;;;;;;;;;;5022775;28;87120;-54
2022/08/08 15:31:51;;;;;;;1.87;1.30;;;;;;;;;;5022836;28;89298;-54
2022/08/08 15:34:39;;;;;;;1.37;1.13;;;;;;;;;;5022691;28;87564;-53
2022/08/08 15:37:08;;;;;;;1.57;1.40;;;;;;;;;;5022556;28;87166;-52
2022/08/08 15:39:37;;;;;;;0.90;0.80;;;;;;;;;;5022744;28;86923;-52
2022/08/08 15:42:08;;;;;;;1.40;1.30;;;;;;;;;;5021586;28;90056;-52
2022/08/08 15:44:58;;;;;;;1.67;1.10;;;;;;;;;;5022601;28;88725;-53
2022/08/08 15:47:26;;;;;;;1.50;1.00;;;;;;;;;;5022805;28;87044;-53
2022/08/08 15:49:58;;;;;;;1.10;1.00;;;;;;;;;;5018967;28;87014;-53
2022/08/08 15:52:26;;;;;;;1.60;1.07;;;;;;;;;;5010385;28;88280;-52
2022/08/08 15:54:55;;;;;;;1.63;1.03;;;;;;;;;;5011653;28;87481;-52
2022/08/08 15:57:26;;;;;;;0.77;0.77;;;;;;;;;;5011275;28;87097;-52
2022/08/08 16:00:03;;;;;;;1.53;1.00;;;;;;;;;;5017438;28;86324;-52
2022/08/08 16:02:51;;;;;;;1.50;1.10;;;;;;;;;;5021914;28;90014;-52